TimeMDT,TemperatureF,Dew PointF,Humidity,Sea Level PressureIn,VisibilityMPH,Wind Direction,Wind SpeedMPH,Gust SpeedMPH,PrecipitationIn,Events,Conditions,WindDirDegrees,DateUTC
12:17 AM,51.8,37.4,58,30.64,10.0,North,-9999.0,-,N/A,,Scattered Clouds,0,2013-07-08 06:17:00
12:37 AM,50.0,37.4,62,30.64,10.0,North,-9999.0,-,N/A,,Mostly Cloudy,0,2013-07-08 06:37:00
12:57 AM,50.0,41.0,71,30.65,10.0,North,-9999.0,-,N/A,Rain,Light Rain,0,2013-07-08 06:57:00
1:17 AM,50.0,41.0,71,30.65,10.0,North,-9999.0,-,N/A,,Overcast,0,2013-07-08 07:17:00
1:37 AM,48.2,41.0,76,30.64,10.0,North,-9999.0,-,N/A,Rain,Light Rain,0,2013-07-08 07:37:00
1:57 AM,48.2,41.0,76,30.66,10.0,North,-9999.0,-,N/A,Thunderstorm,Drizzle,0,2013-07-08 07:57:00
2:17 AM,46.4,42.8,87,30.67,7.0,North,-9999.0,-,0.02,Rain-Thunderstorm,Thunderstorms and Rain,0,2013-07-08 08:17:00
2:37 AM,44.6,42.8,93,30.66,4.0,North,-9999.0,-,0.08,Rain-Thunderstorm,Thunderstorms and Rain,0,2013-07-08 08:37:00
2:57 AM,44.6,42.8,93,30.65,10.0,North,-9999.0,-,0.09,,Mostly Cloudy,0,2013-07-08 08:57:00
3:17 AM,44.6,42.8,93,30.64,10.0,North,-9999.0,-,N/A,,Scattered Clouds,0,2013-07-08 09:17:00
3:37 AM,42.8,42.8,100,30.64,10.0,North,-9999.0,-,N/A,,Scattered Clouds,0,2013-07-08 09:37:00
3:57 AM,42.8,42.8,100,30.64,10.0,North,-9999.0,-,N/A,,Clear,0,2013-07-08 09:57:00
4:17 AM,42.8,41.0,93,30.65,10.0,North,-9999.0,-,N/A,,Clear,0,2013-07-08 10:17:00
4:37 AM,42.8,41.0,93,30.66,10.0,North,-9999.0,-,N/A,,Clear,0,2013-07-08 10:37:00
4:57 AM,42.8,41.0,93,30.64,10.0,North,-9999.0,-,N/A,,Clear,0,2013-07-08 10:57:00
5:17 AM,44.6,41.0,87,30.66,10.0,North,-9999.0,-,N/A,,Clear,0,2013-07-08 11:17:00
5:37 AM,44.6,41.0,87,30.66,10.0,North,-9999.0,-,N/A,,Clear,0,2013-07-08 11:37:00
5:57 AM,44.6,41.0,87,30.67,10.0,North,-9999.0,-,N/A,,Clear,0,2013-07-08 11:57:00
6:17 AM,46.4,37.4,71,30.67,10.0,North,-9999.0,-,N/A,,Clear,0,2013-07-08 12:17:00
6:37 AM,46.4,37.4,71,30.67,10.0,North,-9999.0,-,N/A,,Clear,0,2013-07-08 12:37:00
6:57 AM,46.4,37.4,71,30.67,10.0,North,-9999.0,-,N/A,,Clear,0,2013-07-08 12:57:00
7:17 AM,50.0,37.4,62,30.68,10.0,North,-9999.0,-,N/A,,Clear,0,2013-07-08 13:17:00
7:37 AM,50.0,37.4,62,30.68,10.0,North,-9999.0,-,N/A,,Clear,0,2013-07-08 13:37:00
7:57 AM,51.8,37.4,58,30.69,10.0,North,-9999.0,-,N/A,,Clear,0,2013-07-08 13:57:00
8:17 AM,53.6,39.2,58,30.69,10.0,North,-9999.0,-,N/A,,Clear,0,2013-07-08 14:17:00
8:37 AM,53.6,39.2,58,30.69,10.0,North,-9999.0,-,N/A,,Clear,0,2013-07-08 14:37:00
8:57 AM,53.6,39.2,58,30.70,10.0,North,-9999.0,-,N/A,,Clear,0,2013-07-08 14:57:00
9:17 AM,53.6,41.0,62,30.71,10.0,North,-9999.0,-,N/A,,Clear,0,2013-07-08 15:17:00
9:37 AM,55.4,41.0,58,30.71,10.0,North,-9999.0,-,N/A,,Clear,0,2013-07-08 15:37:00
9:57 AM,55.4,42.8,63,30.71,10.0,North,-9999.0,-,N/A,,Clear,0,2013-07-08 15:57:00
10:17 AM,55.4,42.8,63,30.71,10.0,North,-9999.0,-,N/A,,Clear,0,2013-07-08 16:17:00
10:37 AM,57.2,42.8,59,30.71,10.0,North,-9999.0,-,N/A,,Clear,0,2013-07-08 16:37:00
10:57 AM,59.0,42.8,55,30.72,10.0,North,-9999.0,-,N/A,,Clear,0,2013-07-08 16:57:00
11:17 AM,59.0,41.0,51,30.72,10.0,North,-9999.0,-,N/A,,Scattered Clouds,0,2013-07-08 17:17:00
11:37 AM,60.8,42.8,52,30.72,10.0,North,-9999.0,-,N/A,,Scattered Clouds,0,2013-07-08 17:37:00
11:57 AM,60.8,41.0,48,30.72,10.0,North,-9999.0,-,N/A,,Clear,0,2013-07-08 17:57:00
12:17 PM,60.8,42.8,52,30.72,10.0,North,-9999.0,-,N/A,,Clear,0,2013-07-08 18:17:00
12:37 PM,60.8,42.8,52,30.71,10.0,North,-9999.0,-,N/A,,Clear,0,2013-07-08 18:37:00
12:57 PM,60.8,42.8,52,30.70,10.0,North,-9999.0,-,N/A,,Clear,0,2013-07-08 18:57:00
1:17 PM,60.8,42.8,52,30.70,10.0,North,-9999.0,-,N/A,,Clear,0,2013-07-08 19:17:00
1:37 PM,62.6,42.8,48,30.69,10.0,North,-9999.0,-,N/A,,Clear,0,2013-07-08 19:37:00
1:57 PM,62.6,41.0,45,30.69,10.0,North,-9999.0,-,N/A,,Clear,0,2013-07-08 19:57:00
2:17 PM,60.8,41.0,48,30.69,10.0,North,-9999.0,-,N/A,,Scattered Clouds,0,2013-07-08 20:17:00
2:37 PM,60.8,37.4,42,30.69,10.0,North,-9999.0,-,N/A,,Mostly Cloudy,0,2013-07-08 20:37:00
2:57 PM,59.0,37.4,45,30.70,10.0,North,-9999.0,-,N/A,Thunderstorm,Thunderstorm,0,2013-07-08 20:57:00
3:17 PM,53.6,41.0,62,30.69,10.0,North,-9999.0,-,N/A,,Overcast,0,2013-07-08 21:17:00
3:37 PM,50.0,37.4,62,30.71,10.0,North,-9999.0,-,N/A,Rain-Thunderstorm,Light Thunderstorms and Rain,0,2013-07-08 21:37:00
3:57 PM,50.0,37.4,62,30.70,10.0,North,-9999.0,-,0.02,Rain,Light Rain,0,2013-07-08 21:57:00
4:17 PM,51.8,37.4,58,30.69,10.0,North,-9999.0,-,N/A,,Overcast,0,2013-07-08 22:17:00
4:37 PM,53.6,37.4,54,30.69,10.0,North,-9999.0,-,N/A,,Mostly Cloudy,0,2013-07-08 22:37:00
4:57 PM,53.6,35.6,51,30.68,10.0,North,-9999.0,-,N/A,Rain,Light Rain,0,2013-07-08 22:57:00
5:17 PM,53.6,37.4,54,30.68,7.0,North,-9999.0,-,0.02,Rain,Rain,0,2013-07-08 23:17:00
5:37 PM,53.6,41.0,62,30.68,10.0,North,-9999.0,-,0.02,Rain,Light Rain,0,2013-07-08 23:37:00
5:57 PM,53.6,41.0,62,30.68,10.0,North,-9999.0,-,0.02,Rain,Light Rain,0,2013-07-08 23:57:00
6:17 PM,53.6,37.4,54,30.69,10.0,North,-9999.0,-,N/A,,Overcast,0,2013-07-09 00:17:00
6:37 PM,51.8,41.0,67,30.69,7.0,North,-9999.0,-,0.01,Rain,Rain,0,2013-07-09 00:37:00
6:57 PM,50.0,39.2,66,30.69,7.0,North,-9999.0,-,0.03,Rain-Thunderstorm,Light Thunderstorms and Rain,0,2013-07-09 00:57:00
7:17 PM,50.0,41.0,71,30.69,10.0,North,-9999.0,-,N/A,,Mostly Cloudy,0,2013-07-09 01:17:00
7:37 PM,50.0,39.2,66,30.69,10.0,North,-9999.0,-,N/A,,Overcast,0,2013-07-09 01:37:00
7:57 PM,50.0,39.2,66,30.69,10.0,North,-9999.0,-,N/A,,Overcast,0,2013-07-09 01:57:00
8:17 PM,50.0,37.4,62,30.70,10.0,North,-9999.0,-,N/A,,Overcast,0,2013-07-09 02:17:00
8:37 PM,50.0,35.6,58,30.71,10.0,North,-9999.0,-,N/A,,Mostly Cloudy,0,2013-07-09 02:37:00
8:57 PM,50.0,35.6,58,30.72,10.0,North,-9999.0,-,N/A,,Overcast,0,2013-07-09 02:57:00
9:17 PM,50.0,37.4,62,30.74,10.0,North,-9999.0,-,N/A,Rain,Rain,0,2013-07-09 03:17:00
9:37 PM,44.6,39.2,81,30.77,2.0,North,-9999.0,-,0.17,Rain,Light Rain,0,2013-07-09 03:37:00
9:57 PM,44.6,41.0,87,30.76,7.0,North,-9999.0,-,0.18,Rain,Rain,0,2013-07-09 03:57:00
10:17 PM,44.6,39.2,81,30.76,10.0,North,-9999.0,-,N/A,,Light Drizzle,0,2013-07-09 04:17:00
10:37 PM,46.4,39.2,76,30.76,10.0,North,-9999.0,-,N/A,,Mostly Cloudy,0,2013-07-09 04:37:00
10:57 PM,46.4,37.4,71,30.76,10.0,North,-9999.0,-,N/A,,Mostly Cloudy,0,2013-07-09 04:57:00
11:17 PM,48.2,37.4,66,30.77,10.0,North,-9999.0,-,N/A,,Overcast,0,2013-07-09 05:17:00
11:37 PM,48.2,37.4,66,30.77,10.0,North,-9999.0,-,N/A,,Overcast,0,2013-07-09 05:37:00
11:57 PM,48.2,37.4,66,30.77,10.0,North,-9999.0,-,N/A,,Overcast,0,2013-07-09 05:57:00